sensor_id;sensor_type;location;lat;lon;timestamp;temperature;humidity
16976;DHT22;8604;48.148;-1.786;2023-03-13T00:00:17;13.10;99.90
16976;DHT22;8604;48.148;-1.786;2023-03-13T00:02:45;13.10;99.90
16976;DHT22;8604;48.148;-1.786;2023-03-13T00:05:14;13.00;99.90
16976;DHT22;8604;48.148;-1.786;2023-03-13T00:07:43;13.10;99.90
16976;DHT22;8604;48.148;-1.786;2023-03-13T00:10:11;13.10;99.90
16976;DHT22;8604;48.148;-1.786;2023-03-13T00:12:41;13.10;99.90
16976;DHT22;8604;48.148;-1.786;2023-03-13T00:15:10;13.00;99.90
16976;DHT22;8604;48.148;-1.786;2023-03-13T00:17:38;13.10;99.90
16976;DHT22;8604;48.148;-1.786;2023-03-13T00:20:08;13.00;99.90
16976;DHT22;8604;48.148;-1.786;2023-03-13T00:22:37;13.10;99.90
16976;DHT22;8604;48.148;-1.786;2023-03-13T00:25:06;13.00;99.90
16976;DHT22;8604;48.148;-1.786;2023-03-13T00:27:34;13.00;99.90
16976;DHT22;8604;48.148;-1.786;2023-03-13T00:30:05;13.00;99.90
16976;DHT22;8604;48.148;-1.786;2023-03-13T00:32:34;13.10;99.90
16976;DHT22;8604;48.148;-1.786;2023-03-13T00:35:07;13.10;99.90
16976;DHT22;8604;48.148;-1.786;2023-03-13T00:37:36;13.00;99.90
16976;DHT22;8604;48.148;-1.786;2023-03-13T00:40:06;13.10;99.90
16976;DHT22;8604;48.148;-1.786;2023-03-13T00:42:34;13.10;99.90
16976;DHT22;8604;48.148;-1.786;2023-03-13T00:45:05;13.10;99.90
16976;DHT22;8604;48.148;-1.786;2023-03-13T00:47:34;13.10;99.90
16976;DHT22;8604;48.148;-1.786;2023-03-13T00:50:03;13.20;99.90
16976;DHT22;8604;48.148;-1.786;2023-03-13T00:52:31;13.20;99.90
16976;DHT22;8604;48.148;-1.786;2023-03-13T00:54:59;13.20;99.90
16976;DHT22;8604;48.148;-1.786;2023-03-13T00:57:28;13.20;99.90
16976;DHT22;8604;48.148;-1.786;2023-03-13T00:59:56;13.20;99.90
16976;DHT22;8604;48.148;-1.786;2023-03-13T01:02:26;13.30;99.90
16976;DHT22;8604;48.148;-1.786;2023-03-13T01:04:55;13.30;99.90
16976;DHT22;8604;48.148;-1.786;2023-03-13T01:07:27;13.40;99.90
16976;DHT22;8604;48.148;-1.786;2023-03-13T01:09:56;13.40;99.90
16976;DHT22;8604;48.148;-1.786;2023-03-13T01:12:24;13.40;99.90
16976;DHT22;8604;48.148;-1.786;2023-03-13T01:14:53;13.40;99.90
16976;DHT22;8604;48.148;-1.786;2023-03-13T01:17:21;13.40;99.90
16976;DHT22;8604;48.148;-1.786;2023-03-13T01:19:54;13.40;99.90
16976;DHT22;8604;48.148;-1.786;2023-03-13T01:22:23;13.40;99.90
16976;DHT22;8604;48.148;-1.786;2023-03-13T01:24:52;13.40;99.90
16976;DHT22;8604;48.148;-1.786;2023-03-13T01:27:20;13.40;99.90
16976;DHT22;8604;48.148;-1.786;2023-03-13T01:29:49;13.40;99.90
16976;DHT22;8604;48.148;-1.786;2023-03-13T01:32:17;13.40;99.90
16976;DHT22;8604;48.148;-1.786;2023-03-13T01:34:46;13.40;99.90
16976;DHT22;8604;48.148;-1.786;2023-03-13T01:37:16;13.40;99.90
16976;DHT22;8604;48.148;-1.786;2023-03-13T01:39:44;13.40;99.90
16976;DHT22;8604;48.148;-1.786;2023-03-13T01:42:13;13.40;99.90
16976;DHT22;8604;48.148;-1.786;2023-03-13T01:44:51;13.40;99.90
16976;DHT22;8604;48.148;-1.786;2023-03-13T01:47:21;13.40;99.90
16976;DHT22;8604;48.148;-1.786;2023-03-13T01:50:12;13.50;99.90
16976;DHT22;8604;48.148;-1.786;2023-03-13T01:52:50;13.50;99.90
16976;DHT22;8604;48.148;-1.786;2023-03-13T01:55:24;13.50;99.90
16976;DHT22;8604;48.148;-1.786;2023-03-13T01:57:54;13.40;99.90
16976;DHT22;8604;48.148;-1.786;2023-03-13T02:00:26;13.50;99.90
16976;DHT22;8604;48.148;-1.786;2023-03-13T02:02:59;13.50;99.90
16976;DHT22;8604;48.148;-1.786;2023-03-13T02:05:32;13.50;99.90
16976;DHT22;8604;48.148;-1.786;2023-03-13T02:08:05;13.50;99.90
16976;DHT22;8604;48.148;-1.786;2023-03-13T02:10:38;13.50;99.90
16976;DHT22;8604;48.148;-1.786;2023-03-13T02:13:09;13.50;99.90
16976;DHT22;8604;48.148;-1.786;2023-03-13T02:15:41;13.50;99.90
16976;DHT22;8604;48.148;-1.786;2023-03-13T02:18:10;13.60;99.90
16976;DHT22;8604;48.148;-1.786;2023-03-13T02:20:39;13.50;99.90
16976;DHT22;8604;48.148;-1.786;2023-03-13T02:23:15;13.50;99.90
16976;DHT22;8604;48.148;-1.786;2023-03-13T02:25:49;13.50;99.90
16976;DHT22;8604;48.148;-1.786;2023-03-13T02:28:33;13.50;99.90
16976;DHT22;8604;48.148;-1.786;2023-03-13T02:31:05;13.50;99.90
16976;DHT22;8604;48.148;-1.786;2023-03-13T02:33:38;13.40;99.90
16976;DHT22;8604;48.148;-1.786;2023-03-13T02:36:09;13.40;99.90
16976;DHT22;8604;48.148;-1.786;2023-03-13T02:38:42;13.30;99.90
16976;DHT22;8604;48.148;-1.786;2023-03-13T02:41:14;13.20;99.90
16976;DHT22;8604;48.148;-1.786;2023-03-13T02:43:43;13.20;99.90
16976;DHT22;8604;48.148;-1.786;2023-03-13T02:46:14;13.10;99.90
16976;DHT22;8604;48.148;-1.786;2023-03-13T02:48:47;13.10;99.90
16976;DHT22;8604;48.148;-1.786;2023-03-13T02:51:21;13.10;99.90
16976;DHT22;8604;48.148;-1.786;2023-03-13T02:53:54;13.00;99.90
16976;DHT22;8604;48.148;-1.786;2023-03-13T02:56:26;13.00;99.90
16976;DHT22;8604;48.148;-1.786;2023-03-13T02:58:55;13.00;99.90
16976;DHT22;8604;48.148;-1.786;2023-03-13T03:01:25;13.00;99.90
16976;DHT22;8604;48.148;-1.786;2023-03-13T03:03:54;13.00;99.90
16976;DHT22;8604;48.148;-1.786;2023-03-13T03:06:23;13.00;99.90
16976;DHT22;8604;48.148;-1.786;2023-03-13T03:08:53;13.00;99.90
16976;DHT22;8604;48.148;-1.786;2023-03-13T03:11:22;13.00;99.90
16976;DHT22;8604;48.148;-1.786;2023-03-13T03:13:58;13.00;99.90
16976;DHT22;8604;48.148;-1.786;2023-03-13T03:16:30;13.00;99.90
16976;DHT22;8604;48.148;-1.786;2023-03-13T03:18:58;13.00;99.90
16976;DHT22;8604;48.148;-1.786;2023-03-13T03:21:27;13.00;99.90
16976;DHT22;8604;48.148;-1.786;2023-03-13T03:23:55;13.00;99.90
16976;DHT22;8604;48.148;-1.786;2023-03-13T03:26:24;13.00;99.90
16976;DHT22;8604;48.148;-1.786;2023-03-13T03:28:53;13.00;99.90
16976;DHT22;8604;48.148;-1.786;2023-03-13T03:31:26;13.00;99.90
16976;DHT22;8604;48.148;-1.786;2023-03-13T03:33:56;13.00;99.90
16976;DHT22;8604;48.148;-1.786;2023-03-13T03:36:25;12.90;99.90
16976;DHT22;8604;48.148;-1.786;2023-03-13T03:38:53;12.90;99.90
16976;DHT22;8604;48.148;-1.786;2023-03-13T03:41:25;12.90;99.90
16976;DHT22;8604;48.148;-1.786;2023-03-13T03:43:56;12.90;99.90
16976;DHT22;8604;48.148;-1.786;2023-03-13T03:46:33;12.90;99.90
16976;DHT22;8604;48.148;-1.786;2023-03-13T03:49:02;12.90;99.90
16976;DHT22;8604;48.148;-1.786;2023-03-13T03:51:30;12.90;99.90
16976;DHT22;8604;48.148;-1.786;2023-03-13T03:53:59;12.90;99.90
16976;DHT22;8604;48.148;-1.786;2023-03-13T03:56:30;12.90;99.90
16976;DHT22;8604;48.148;-1.786;2023-03-13T03:58:59;12.80;99.90
16976;DHT22;8604;48.148;-1.786;2023-03-13T04:01:45;12.80;99.90
16976;DHT22;8604;48.148;-1.786;2023-03-13T04:04:18;12.80;99.90
16976;DHT22;8604;48.148;-1.786;2023-03-13T04:06:51;12.80;99.90
16976;DHT22;8604;48.148;-1.786;2023-03-13T04:09:20;12.80;99.90
16976;DHT22;8604;48.148;-1.786;2023-03-13T04:11:48;12.80;99.90
16976;DHT22;8604;48.148;-1.786;2023-03-13T04:14:17;12.80;99.90
16976;DHT22;8604;48.148;-1.786;2023-03-13T04:16:47;12.70;99.90
16976;DHT22;8604;48.148;-1.786;2023-03-13T04:19:15;12.70;99.90
16976;DHT22;8604;48.148;-1.786;2023-03-13T04:21:44;12.80;99.90
16976;DHT22;8604;48.148;-1.786;2023-03-13T04:24:16;12.80;99.90
16976;DHT22;8604;48.148;-1.786;2023-03-13T04:26:45;12.70;99.90
16976;DHT22;8604;48.148;-1.786;2023-03-13T04:29:25;12.80;99.90
16976;DHT22;8604;48.148;-1.786;2023-03-13T04:32:10;12.70;99.90
16976;DHT22;8604;48.148;-1.786;2023-03-13T04:34:51;12.70;99.90
16976;DHT22;8604;48.148;-1.786;2023-03-13T04:37:33;12.70;99.90
16976;DHT22;8604;48.148;-1.786;2023-03-13T04:40:28;12.70;99.90
16976;DHT22;8604;48.148;-1.786;2023-03-13T04:43:15;12.70;99.90
16976;DHT22;8604;48.148;-1.786;2023-03-13T04:46:03;12.70;99.90
16976;DHT22;8604;48.148;-1.786;2023-03-13T04:48:44;12.70;99.90
16976;DHT22;8604;48.148;-1.786;2023-03-13T04:51:39;12.70;99.90
16976;DHT22;8604;48.148;-1.786;2023-03-13T04:54:14;12.70;99.90
16976;DHT22;8604;48.148;-1.786;2023-03-13T04:56:52;12.70;99.90
16976;DHT22;8604;48.148;-1.786;2023-03-13T04:59:39;12.70;99.90
16976;DHT22;8604;48.148;-1.786;2023-03-13T05:02:31;12.70;99.90
16976;DHT22;8604;48.148;-1.786;2023-03-13T05:05:20;12.60;99.90
16976;DHT22;8604;48.148;-1.786;2023-03-13T05:08:09;12.60;99.90
16976;DHT22;8604;48.148;-1.786;2023-03-13T05:10:57;12.60;99.90
16976;DHT22;8604;48.148;-1.786;2023-03-13T05:13:47;12.60;99.90
16976;DHT22;8604;48.148;-1.786;2023-03-13T05:16:28;12.60;99.90
16976;DHT22;8604;48.148;-1.786;2023-03-13T05:19:14;12.60;99.90
16976;DHT22;8604;48.148;-1.786;2023-03-13T05:22:12;12.50;99.90
16976;DHT22;8604;48.148;-1.786;2023-03-13T05:24:49;12.50;99.90
16976;DHT22;8604;48.148;-1.786;2023-03-13T05:27:31;12.50;99.90
16976;DHT22;8604;48.148;-1.786;2023-03-13T05:30:13;12.50;99.90
16976;DHT22;8604;48.148;-1.786;2023-03-13T05:33:06;12.60;99.90
16976;DHT22;8604;48.148;-1.786;2023-03-13T05:35:53;12.60;99.90
16976;DHT22;8604;48.148;-1.786;2023-03-13T05:38:40;12.50;99.90
16976;DHT22;8604;48.148;-1.786;2023-03-13T05:41:20;12.60;99.90
16976;DHT22;8604;48.148;-1.786;2023-03-13T05:43:59;12.60;99.90
16976;DHT22;8604;48.148;-1.786;2023-03-13T05:46:47;12.60;99.90
16976;DHT22;8604;48.148;-1.786;2023-03-13T05:49:36;12.60;99.90
16976;DHT22;8604;48.148;-1.786;2023-03-13T05:52:17;12.60;99.90
16976;DHT22;8604;48.148;-1.786;2023-03-13T05:55:03;12.60;99.90
16976;DHT22;8604;48.148;-1.786;2023-03-13T05:58:27;12.60;99.90
16976;DHT22;8604;48.148;-1.786;2023-03-13T06:04:05;12.60;99.90
16976;DHT22;8604;48.148;-1.786;2023-03-13T06:09:04;12.50;99.90
16976;DHT22;8604;48.148;-1.786;2023-03-13T06:11:33;12.60;99.90
16976;DHT22;8604;48.148;-1.786;2023-03-13T06:21:51;12.50;99.90
16976;DHT22;8604;48.148;-1.786;2023-03-13T06:24:40;12.60;99.90
16976;DHT22;8604;48.148;-1.786;2023-03-13T06:29:36;12.50;99.90
16976;DHT22;8604;48.148;-1.786;2023-03-13T06:32:05;12.60;99.90
16976;DHT22;8604;48.148;-1.786;2023-03-13T06:34:38;12.60;99.90
16976;DHT22;8604;48.148;-1.786;2023-03-13T06:37:13;12.50;99.90
16976;DHT22;8604;48.148;-1.786;2023-03-13T06:39:49;12.50;99.90
16976;DHT22;8604;48.148;-1.786;2023-03-13T06:42:17;12.50;99.90
16976;DHT22;8604;48.148;-1.786;2023-03-13T06:44:45;12.50;99.90
16976;DHT22;8604;48.148;-1.786;2023-03-13T06:47:23;12.50;99.90
16976;DHT22;8604;48.148;-1.786;2023-03-13T06:51:48;12.50;99.90
16976;DHT22;8604;48.148;-1.786;2023-03-13T06:54:52;12.50;99.90
16976;DHT22;8604;48.148;-1.786;2023-03-13T06:57:13;12.50;99.90
16976;DHT22;8604;48.148;-1.786;2023-03-13T07:52:39;13.80;99.90
16976;DHT22;8604;48.148;-1.786;2023-03-13T07:55:08;14.20;99.90
16976;DHT22;8604;48.148;-1.786;2023-03-13T07:57:37;14.50;99.90
16976;DHT22;8604;48.148;-1.786;2023-03-13T08:00:09;14.80;99.90
16976;DHT22;8604;48.148;-1.786;2023-03-13T08:02:42;15.10;99.90
16976;DHT22;8604;48.148;-1.786;2023-03-13T08:09:02;15.50;99.90
16976;DHT22;8604;48.148;-1.786;2023-03-13T08:11:39;15.60;99.90
16976;DHT22;8604;48.148;-1.786;2023-03-13T08:14:07;15.70;99.90
16976;DHT22;8604;48.148;-1.786;2023-03-13T08:16:39;15.70;99.90
16976;DHT22;8604;48.148;-1.786;2023-03-13T08:19:09;15.80;99.90
16976;DHT22;8604;48.148;-1.786;2023-03-13T08:21:39;16.10;99.90
16976;DHT22;8604;48.148;-1.786;2023-03-13T08:24:27;16.50;99.90
16976;DHT22;8604;48.148;-1.786;2023-03-13T08:26:55;16.90;99.90
16976;DHT22;8604;48.148;-1.786;2023-03-13T08:29:24;17.10;99.90
16976;DHT22;8604;48.148;-1.786;2023-03-13T08:31:53;16.90;99.90
16976;DHT22;8604;48.148;-1.786;2023-03-13T08:34:26;16.60;99.90
16976;DHT22;8604;48.148;-1.786;2023-03-13T08:36:55;16.90;99.90
16976;DHT22;8604;48.148;-1.786;2023-03-13T08:39:38;17.10;99.90
16976;DHT22;8604;48.148;-1.786;2023-03-13T08:42:08;17.00;99.90
16976;DHT22;8604;48.148;-1.786;2023-03-13T08:44:40;17.40;99.90
16976;DHT22;8604;48.148;-1.786;2023-03-13T08:47:12;17.30;99.90
16976;DHT22;8604;48.148;-1.786;2023-03-13T08:49:46;17.50;99.90
16976;DHT22;8604;48.148;-1.786;2023-03-13T08:52:15;17.90;99.90
16976;DHT22;8604;48.148;-1.786;2023-03-13T08:54:47;18.30;99.90
16976;DHT22;8604;48.148;-1.786;2023-03-13T08:57:16;18.60;99.90
16976;DHT22;8604;48.148;-1.786;2023-03-13T08:59:45;18.10;99.90
16976;DHT22;8604;48.148;-1.786;2023-03-13T09:02:14;18.20;99.90
16976;DHT22;8604;48.148;-1.786;2023-03-13T09:04:47;18.30;99.90
16976;DHT22;8604;48.148;-1.786;2023-03-13T09:07:16;17.90;99.90
16976;DHT22;8604;48.148;-1.786;2023-03-13T09:09:46;17.80;99.90
16976;DHT22;8604;48.148;-1.786;2023-03-13T09:12:17;18.10;99.90
16976;DHT22;8604;48.148;-1.786;2023-03-13T09:14:57;17.90;99.90
16976;DHT22;8604;48.148;-1.786;2023-03-13T09:17:26;17.90;99.90
16976;DHT22;8604;48.148;-1.786;2023-03-13T09:19:55;17.90;99.90
16976;DHT22;8604;48.148;-1.786;2023-03-13T09:22:27;18.00;99.90
16976;DHT22;8604;48.148;-1.786;2023-03-13T09:25:17;17.90;99.90
16976;DHT22;8604;48.148;-1.786;2023-03-13T09:28:03;17.60;99.90
16976;DHT22;8604;48.148;-1.786;2023-03-13T09:30:32;17.70;99.90
16976;DHT22;8604;48.148;-1.786;2023-03-13T09:33:03;18.10;99.90
16976;DHT22;8604;48.148;-1.786;2023-03-13T09:35:46;18.50;99.90
16976;DHT22;8604;48.148;-1.786;2023-03-13T09:38:38;18.40;99.90
16976;DHT22;8604;48.148;-1.786;2023-03-13T09:41:25;18.80;99.90
16976;DHT22;8604;48.148;-1.786;2023-03-13T09:44:13;19.10;99.90
16976;DHT22;8604;48.148;-1.786;2023-03-13T09:46:53;18.50;99.90
16976;DHT22;8604;48.148;-1.786;2023-03-13T09:50:12;18.80;99.90
16976;DHT22;8604;48.148;-1.786;2023-03-13T09:52:43;19.80;99.90
16976;DHT22;8604;48.148;-1.786;2023-03-13T09:55:16;20.00;99.90
16976;DHT22;8604;48.148;-1.786;2023-03-13T09:57:52;20.40;99.90
16976;DHT22;8604;48.148;-1.786;2023-03-13T10:00:26;20.60;99.90
16976;DHT22;8604;48.148;-1.786;2023-03-13T10:02:59;20.80;99.90
16976;DHT22;8604;48.148;-1.786;2023-03-13T10:05:31;20.90;99.90
16976;DHT22;8604;48.148;-1.786;2023-03-13T10:08:09;20.90;99.90
16976;DHT22;8604;48.148;-1.786;2023-03-13T10:10:47;20.10;99.90
16976;DHT22;8604;48.148;-1.786;2023-03-13T10:13:22;19.70;99.90
16976;DHT22;8604;48.148;-1.786;2023-03-13T10:15:55;19.00;99.90
16976;DHT22;8604;48.148;-1.786;2023-03-13T10:18:32;18.90;99.90
16976;DHT22;8604;48.148;-1.786;2023-03-13T10:21:13;19.00;99.90
16976;DHT22;8604;48.148;-1.786;2023-03-13T10:23:52;19.10;99.90
16976;DHT22;8604;48.148;-1.786;2023-03-13T10:26:31;19.20;99.90
16976;DHT22;8604;48.148;-1.786;2023-03-13T10:29:19;19.70;99.90
16976;DHT22;8604;48.148;-1.786;2023-03-13T10:31:55;20.10;99.90
16976;DHT22;8604;48.148;-1.786;2023-03-13T10:34:26;20.10;99.90
16976;DHT22;8604;48.148;-1.786;2023-03-13T10:36:57;20.30;99.90
16976;DHT22;8604;48.148;-1.786;2023-03-13T10:39:30;20.70;99.90
16976;DHT22;8604;48.148;-1.786;2023-03-13T10:42:08;21.20;99.90
16976;DHT22;8604;48.148;-1.786;2023-03-13T10:44:39;21.60;99.90
16976;DHT22;8604;48.148;-1.786;2023-03-13T10:47:11;21.80;99.90
16976;DHT22;8604;48.148;-1.786;2023-03-13T10:49:47;21.80;99.90
16976;DHT22;8604;48.148;-1.786;2023-03-13T10:52:29;21.80;99.90
16976;DHT22;8604;48.148;-1.786;2023-03-13T10:55:00;21.90;99.90
16976;DHT22;8604;48.148;-1.786;2023-03-13T10:57:31;21.10;99.90
16976;DHT22;8604;48.148;-1.786;2023-03-13T11:00:03;20.40;99.90
16976;DHT22;8604;48.148;-1.786;2023-03-13T11:02:37;20.30;99.90
16976;DHT22;8604;48.148;-1.786;2023-03-13T11:05:30;20.50;99.90
16976;DHT22;8604;48.148;-1.786;2023-03-13T11:08:20;20.80;99.90
16976;DHT22;8604;48.148;-1.786;2023-03-13T11:10:58;20.80;99.90
16976;DHT22;8604;48.148;-1.786;2023-03-13T11:13:38;20.50;99.90
16976;DHT22;8604;48.148;-1.786;2023-03-13T11:16:22;20.40;99.90
16976;DHT22;8604;48.148;-1.786;2023-03-13T11:22:17;21.30;99.90
16976;DHT22;8604;48.148;-1.786;2023-03-13T11:24:53;21.60;99.90
16976;DHT22;8604;48.148;-1.786;2023-03-13T11:27:29;21.70;99.90
16976;DHT22;8604;48.148;-1.786;2023-03-13T11:30:10;21.70;99.90
16976;DHT22;8604;48.148;-1.786;2023-03-13T11:32:47;21.90;99.90
16976;DHT22;8604;48.148;-1.786;2023-03-13T11:35:26;21.80;99.90
16976;DHT22;8604;48.148;-1.786;2023-03-13T11:37:57;22.00;99.90
16976;DHT22;8604;48.148;-1.786;2023-03-13T11:40:54;22.10;99.90
16976;DHT22;8604;48.148;-1.786;2023-03-13T11:43:41;21.60;99.90
16976;DHT22;8604;48.148;-1.786;2023-03-13T11:46:25;21.70;99.90
16976;DHT22;8604;48.148;-1.786;2023-03-13T11:52:27;21.70;99.90
16976;DHT22;8604;48.148;-1.786;2023-03-13T11:55:24;21.20;99.90
16976;DHT22;8604;48.148;-1.786;2023-03-13T11:58:08;21.10;99.90
16976;DHT22;8604;48.148;-1.786;2023-03-13T12:00:58;21.10;99.90
16976;DHT22;8604;48.148;-1.786;2023-03-13T12:03:34;21.20;99.90
16976;DHT22;8604;48.148;-1.786;2023-03-13T12:06:29;21.30;99.90
16976;DHT22;8604;48.148;-1.786;2023-03-13T12:09:14;21.50;99.90
16976;DHT22;8604;48.148;-1.786;2023-03-13T12:11:46;21.50;99.90
16976;DHT22;8604;48.148;-1.786;2023-03-13T12:14:24;21.50;99.90
16976;DHT22;8604;48.148;-1.786;2023-03-13T12:17:10;21.30;99.90
16976;DHT22;8604;48.148;-1.786;2023-03-13T12:19:56;21.00;99.90
16976;DHT22;8604;48.148;-1.786;2023-03-13T12:22:31;20.80;99.90
16976;DHT22;8604;48.148;-1.786;2023-03-13T12:25:13;20.40;99.90
16976;DHT22;8604;48.148;-1.786;2023-03-13T12:27:48;20.10;99.90
16976;DHT22;8604;48.148;-1.786;2023-03-13T12:30:23;19.60;99.90
16976;DHT22;8604;48.148;-1.786;2023-03-13T12:32:58;19.30;99.90
16976;DHT22;8604;48.148;-1.786;2023-03-13T12:35:30;19.20;99.90
16976;DHT22;8604;48.148;-1.786;2023-03-13T12:38:04;19.00;99.90
16976;DHT22;8604;48.148;-1.786;2023-03-13T12:40:42;18.80;99.90
16976;DHT22;8604;48.148;-1.786;2023-03-13T12:43:17;18.90;99.90
16976;DHT22;8604;48.148;-1.786;2023-03-13T12:46:00;19.00;99.90
16976;DHT22;8604;48.148;-1.786;2023-03-13T12:48:45;19.10;99.90
16976;DHT22;8604;48.148;-1.786;2023-03-13T12:51:35;19.20;99.90
16976;DHT22;8604;48.148;-1.786;2023-03-13T12:54:20;19.20;99.90
16976;DHT22;8604;48.148;-1.786;2023-03-13T12:57:06;19.30;99.90
16976;DHT22;8604;48.148;-1.786;2023-03-13T12:59:41;18.90;99.90
16976;DHT22;8604;48.148;-1.786;2023-03-13T13:02:16;18.70;99.90
16976;DHT22;8604;48.148;-1.786;2023-03-13T13:04:47;18.60;99.90
16976;DHT22;8604;48.148;-1.786;2023-03-13T13:07:24;18.50;99.90
16976;DHT22;8604;48.148;-1.786;2023-03-13T13:10:16;18.30;99.90
16976;DHT22;8604;48.148;-1.786;2023-03-13T13:13:18;18.40;99.90
16976;DHT22;8604;48.148;-1.786;2023-03-13T13:16:00;18.30;99.90
16976;DHT22;8604;48.148;-1.786;2023-03-13T13:18:30;18.30;99.90
16976;DHT22;8604;48.148;-1.786;2023-03-13T13:21:23;18.30;99.90
16976;DHT22;8604;48.148;-1.786;2023-03-13T13:23:53;18.20;99.90
16976;DHT22;8604;48.148;-1.786;2023-03-13T13:26:47;18.00;99.90
16976;DHT22;8604;48.148;-1.786;2023-03-13T14:11:22;17.50;99.90
16976;DHT22;8604;48.148;-1.786;2023-03-13T14:14:15;17.40;99.90
16976;DHT22;8604;48.148;-1.786;2023-03-13T14:16:45;17.40;99.90
16976;DHT22;8604;48.148;-1.786;2023-03-13T14:19:23;17.30;99.90
16976;DHT22;8604;48.148;-1.786;2023-03-13T14:21:58;17.20;99.90
16976;DHT22;8604;48.148;-1.786;2023-03-13T14:24:27;17.10;99.90
16976;DHT22;8604;48.148;-1.786;2023-03-13T14:27:18;17.10;99.90
16976;DHT22;8604;48.148;-1.786;2023-03-13T14:30:01;17.00;99.90
16976;DHT22;8604;48.148;-1.786;2023-03-13T14:32:30;17.00;99.90
16976;DHT22;8604;48.148;-1.786;2023-03-13T14:34:59;17.00;99.90
16976;DHT22;8604;48.148;-1.786;2023-03-13T14:37:33;16.90;99.90
16976;DHT22;8604;48.148;-1.786;2023-03-13T14:40:06;16.90;99.90
16976;DHT22;8604;48.148;-1.786;2023-03-13T14:42:44;16.90;99.90
16976;DHT22;8604;48.148;-1.786;2023-03-13T14:45:15;16.90;99.90
16976;DHT22;8604;48.148;-1.786;2023-03-13T14:47:49;16.80;99.90
16976;DHT22;8604;48.148;-1.786;2023-03-13T14:50:21;16.80;99.90
16976;DHT22;8604;48.148;-1.786;2023-03-13T14:52:52;16.80;99.90
16976;DHT22;8604;48.148;-1.786;2023-03-13T14:55:28;16.70;99.90
16976;DHT22;8604;48.148;-1.786;2023-03-13T14:58:04;16.50;99.90
16976;DHT22;8604;48.148;-1.786;2023-03-13T15:00:36;16.40;99.90
16976;DHT22;8604;48.148;-1.786;2023-03-13T15:03:22;16.30;99.90
16976;DHT22;8604;48.148;-1.786;2023-03-13T15:06:03;16.40;99.90
16976;DHT22;8604;48.148;-1.786;2023-03-13T15:08:34;16.40;99.90
16976;DHT22;8604;48.148;-1.786;2023-03-13T15:11:17;16.40;99.90
16976;DHT22;8604;48.148;-1.786;2023-03-13T15:13:47;16.30;99.90
16976;DHT22;8604;48.148;-1.786;2023-03-13T15:16:18;16.10;99.90
16976;DHT22;8604;48.148;-1.786;2023-03-13T15:18:49;15.90;99.90
16976;DHT22;8604;48.148;-1.786;2023-03-13T15:21:29;15.80;99.90
16976;DHT22;8604;48.148;-1.786;2023-03-13T15:24:01;15.70;99.90
16976;DHT22;8604;48.148;-1.786;2023-03-13T15:26:30;15.70;99.90
16976;DHT22;8604;48.148;-1.786;2023-03-13T15:29:05;15.60;99.90
16976;DHT22;8604;48.148;-1.786;2023-03-13T15:31:49;15.50;99.90
16976;DHT22;8604;48.148;-1.786;2023-03-13T15:34:18;15.30;99.90
16976;DHT22;8604;48.148;-1.786;2023-03-13T15:46:43;14.60;99.90
16976;DHT22;8604;48.148;-1.786;2023-03-13T15:49:12;14.30;99.90
16976;DHT22;8604;48.148;-1.786;2023-03-13T15:51:41;14.00;99.90
16976;DHT22;8604;48.148;-1.786;2023-03-13T15:54:09;13.80;99.90
16976;DHT22;8604;48.148;-1.786;2023-03-13T15:56:38;13.90;99.90
16976;DHT22;8604;48.148;-1.786;2023-03-13T15:59:14;13.90;99.90
16976;DHT22;8604;48.148;-1.786;2023-03-13T16:01:44;13.90;99.90
16976;DHT22;8604;48.148;-1.786;2023-03-13T16:04:41;13.90;99.90
16976;DHT22;8604;48.148;-1.786;2023-03-13T16:07:20;13.90;99.90
16976;DHT22;8604;48.148;-1.786;2023-03-13T16:09:49;13.90;99.90
16976;DHT22;8604;48.148;-1.786;2023-03-13T16:12:17;14.00;99.90
16976;DHT22;8604;48.148;-1.786;2023-03-13T16:14:46;14.00;99.90
16976;DHT22;8604;48.148;-1.786;2023-03-13T16:17:18;14.00;99.90
16976;DHT22;8604;48.148;-1.786;2023-03-13T16:19:48;13.90;99.90
16976;DHT22;8604;48.148;-1.786;2023-03-13T16:22:16;13.80;99.90
16976;DHT22;8604;48.148;-1.786;2023-03-13T16:24:45;13.80;99.90
16976;DHT22;8604;48.148;-1.786;2023-03-13T16:27:14;13.80;99.90
16976;DHT22;8604;48.148;-1.786;2023-03-13T16:29:44;13.70;99.90
16976;DHT22;8604;48.148;-1.786;2023-03-13T16:32:16;13.70;99.90
16976;DHT22;8604;48.148;-1.786;2023-03-13T16:34:50;13.70;99.90
16976;DHT22;8604;48.148;-1.786;2023-03-13T16:37:19;13.60;99.90
16976;DHT22;8604;48.148;-1.786;2023-03-13T16:39:52;13.50;99.90
16976;DHT22;8604;48.148;-1.786;2023-03-13T16:49:13;13.30;99.90
16976;DHT22;8604;48.148;-1.786;2023-03-13T16:52:12;13.20;99.90
16976;DHT22;8604;48.148;-1.786;2023-03-13T16:54:41;13.00;99.90
16976;DHT22;8604;48.148;-1.786;2023-03-13T17:01:20;12.90;99.90
16976;DHT22;8604;48.148;-1.786;2023-03-13T17:03:54;12.80;99.90
16976;DHT22;8604;48.148;-1.786;2023-03-13T17:06:35;12.70;99.90
16976;DHT22;8604;48.148;-1.786;2023-03-13T17:09:10;12.60;99.90
16976;DHT22;8604;48.148;-1.786;2023-03-13T17:11:59;12.50;99.90
16976;DHT22;8604;48.148;-1.786;2023-03-13T17:14:32;12.50;99.90
16976;DHT22;8604;48.148;-1.786;2023-03-13T17:17:02;12.40;99.90
16976;DHT22;8604;48.148;-1.786;2023-03-13T17:19:31;12.40;99.90
16976;DHT22;8604;48.148;-1.786;2023-03-13T17:22:01;12.40;99.90
16976;DHT22;8604;48.148;-1.786;2023-03-13T17:24:31;12.40;99.90
16976;DHT22;8604;48.148;-1.786;2023-03-13T17:27:03;12.40;99.90
16976;DHT22;8604;48.148;-1.786;2023-03-13T17:29:32;12.30;99.90
16976;DHT22;8604;48.148;-1.786;2023-03-13T17:32:04;12.30;99.90
16976;DHT22;8604;48.148;-1.786;2023-03-13T17:34:59;12.20;99.90
16976;DHT22;8604;48.148;-1.786;2023-03-13T17:37:29;12.10;99.90
16976;DHT22;8604;48.148;-1.786;2023-03-13T17:40:13;12.00;99.90
16976;DHT22;8604;48.148;-1.786;2023-03-13T18:29:12;11.70;99.90
16976;DHT22;8604;48.148;-1.786;2023-03-13T18:35:08;11.70;99.90
16976;DHT22;8604;48.148;-1.786;2023-03-13T18:37:51;11.70;99.90
16976;DHT22;8604;48.148;-1.786;2023-03-13T18:40:22;11.70;99.90
16976;DHT22;8604;48.148;-1.786;2023-03-13T22:32:26;11.30;99.90
16976;DHT22;8604;48.148;-1.786;2023-03-13T22:34:56;11.40;99.90
16976;DHT22;8604;48.148;-1.786;2023-03-13T22:37:25;11.40;99.90
16976;DHT22;8604;48.148;-1.786;2023-03-13T22:39:53;11.40;99.90
16976;DHT22;8604;48.148;-1.786;2023-03-13T22:42:22;11.30;99.90
16976;DHT22;8604;48.148;-1.786;2023-03-13T22:44:52;11.30;99.90
16976;DHT22;8604;48.148;-1.786;2023-03-13T22:47:22;11.30;99.90
16976;DHT22;8604;48.148;-1.786;2023-03-13T22:49:53;11.30;99.90
16976;DHT22;8604;48.148;-1.786;2023-03-13T22:52:21;11.30;99.90
16976;DHT22;8604;48.148;-1.786;2023-03-13T22:54:55;11.30;99.90
16976;DHT22;8604;48.148;-1.786;2023-03-13T22:57:24;11.30;99.90
16976;DHT22;8604;48.148;-1.786;2023-03-13T22:59:55;11.30;99.90
16976;DHT22;8604;48.148;-1.786;2023-03-13T23:02:27;11.30;99.90
16976;DHT22;8604;48.148;-1.786;2023-03-13T23:04:57;11.30;99.90
16976;DHT22;8604;48.148;-1.786;2023-03-13T23:07:28;11.30;99.90
16976;DHT22;8604;48.148;-1.786;2023-03-13T23:09:57;11.30;99.90
16976;DHT22;8604;48.148;-1.786;2023-03-13T23:12:26;11.30;99.90
16976;DHT22;8604;48.148;-1.786;2023-03-13T23:14:56;11.30;99.90
16976;DHT22;8604;48.148;-1.786;2023-03-13T23:17:30;11.30;99.90
16976;DHT22;8604;48.148;-1.786;2023-03-13T23:20:04;11.30;99.90
16976;DHT22;8604;48.148;-1.786;2023-03-13T23:22:39;11.30;99.90